Woodland, Georgia
Current Conditions -  °F | °C
As of 11:35 AM on Tuesday 27 Jan 2015 (Local Time) from KOPN Reporting Station
Scattered Clouds Scattered Clouds  
Wind Chill: 52°   Ceiling: Unl
Heat Index: 52°   Visibility: 10mi
Dew Point: 36°   Wind: 8mph
Humidity: 54%   Direction: 340°NNW
Pressure: 29.96"   Gusts: NA
Location:  32.79°N, 84.56°W
Report Text: KOPN 271635Z AUTO 34007KT 10SM SCT039 SCT047 SCT055 11/02 A2996 RMK AO2
Loading
Personal Weather Stations






























Interactive Weather Map New forecast layout! Learn more

10-Day Weather Forecast

Advertisements
Track Severe Weather on mobile